Time;durP1;ratioP1;P1;durP2;ratioP2;P2;SDS_P1;SDS_P2;PMS_P1;PMS_P2;Temp;Humidity;BMP_temperature;BMP_pressure;BME280_temperature;BME280_humidity;BME280_pressure;Samples;Min_cycle;Max_cycle;Signal;HPM_P1;HPM_P2
2023/09/01 00:00:04;;;;;;;1.73;1.30;;;;;;;16.91;76.02;98708.63;5075865;28;39914;-78
2023/09/01 00:02:34;;;;;;;1.50;1.20;;;;;;;16.87;76.20;98698.19;5091061;28;42392;-79
2023/09/01 00:05:08;;;;;;;1.30;1.20;;;;;;;16.89;76.27;98695.38;5092677;28;41353;-76
2023/09/01 00:07:36;;;;;;;1.83;1.30;;;;;;;16.87;77.22;98695.53;5092733;28;41117;-76
2023/09/01 00:10:06;;;;;;;2.07;1.60;;;;;;;16.86;77.06;98695.66;5092571;28;40225;-79
2023/09/01 00:12:34;;;;;;;2.97;2.10;;;;;;;16.71;77.23;98673.81;5093175;28;43071;-80
2023/09/01 00:15:05;;;;;;;1.57;1.13;;;;;;;16.81;77.22;98697.91;5109751;28;42226;-80
2023/09/01 00:17:34;;;;;;;3.07;1.67;;;;;;;16.79;77.50;98695.38;5092288;28;42983;-80
2023/09/01 00:20:02;;;;;;;1.43;1.27;;;;;;;16.69;77.88;98673.09;5091287;28;41002;-76
2023/09/01 00:22:30;;;;;;;2.13;1.30;;;;;;;16.70;78.35;98676.63;5091806;28;41751;-77
2023/09/01 00:24:58;;;;;;;2.20;1.60;;;;;;;16.70;78.30;98680.16;5091612;28;42788;-77
2023/09/01 00:27:27;;;;;;;2.00;1.63;;;;;;;16.70;78.39;98680.16;5092934;28;42313;-79
2023/09/01 00:29:54;;;;;;;3.23;1.53;;;;;;;16.70;78.35;98680.16;5091735;28;41547;-77
2023/09/01 00:32:22;;;;;;;1.87;1.60;;;;;;;16.71;77.83;98676.50;5092153;28;41712;-79
2023/09/01 00:34:56;;;;;;;3.63;1.60;;;;;;;16.74;77.82;98673.56;5091532;28;42817;-77
2023/09/01 00:37:24;;;;;;;3.27;1.53;;;;;;;16.75;78.86;98667.22;5088809;28;42991;-80
2023/09/01 00:39:52;;;;;;;2.47;1.70;;;;;;;16.74;79.23;98665.53;5075018;28;39240;-79
2023/09/01 00:42:19;;;;;;;1.90;1.50;;;;;;;16.75;78.56;98675.25;5091803;28;42620;-78
2023/09/01 00:44:49;;;;;;;1.37;1.00;;;;;;;16.75;78.29;98672.56;5074555;28;43280;-81
2023/09/01 00:47:17;;;;;;;2.20;1.63;;;;;;;16.73;78.60;98663.84;5091619;28;43570;-78
2023/09/01 00:49:45;;;;;;;2.27;1.40;;;;;;;16.74;78.77;98665.53;5074517;28;39036;-79
2023/09/01 00:52:13;;;;;;;2.10;1.13;;;;;;;16.75;78.94;98664.53;5074521;28;41773;-81
2023/09/01 00:54:41;;;;;;;1.57;1.40;;;;;;;16.66;79.37;98657.38;5092575;28;43020;-81
2023/09/01 00:57:08;;;;;;;2.10;1.50;;;;;;;16.75;79.24;98672.56;5075379;28;41354;-78
2023/09/01 00:59:37;;;;;;;1.60;1.37;;;;;;;16.73;79.92;98666.50;5093714;28;39989;-80
2023/09/01 01:02:06;;;;;;;2.40;1.50;;;;;;;16.73;79.39;98671.00;5092075;28;41716;-80
2023/09/01 01:04:34;;;;;;;1.70;1.60;;;;;;;16.69;79.51;98657.06;5075015;28;41568;-81
2023/09/01 01:07:08;;;;;;;1.97;1.77;;;;;;;16.78;80.30;98669.63;5091808;28;42521;-81
2023/09/01 01:09:47;;;;;;;4.97;1.90;;;;;;;16.71;80.13;98655.09;5092416;28;39698;-77
2023/09/01 01:12:22;;;;;;;3.20;1.50;;;;;;;16.72;79.71;98654.13;5075607;28;40714;-81
2023/09/01 01:14:54;;;;;;;2.57;1.57;;;;;;;16.79;79.65;98657.94;5074960;28;42807;-82
2023/09/01 01:17:24;;;;;;;2.23;1.40;;;;;;;16.79;79.76;98663.28;5092052;28;41201;-81
2023/09/01 01:19:54;;;;;;;2.13;1.80;;;;;;;16.78;80.15;98648.22;5091959;28;39504;-79
2023/09/01 01:22:36;;;;;;;2.20;1.60;;;;;;;16.77;80.16;98649.22;5074325;28;41720;-80
2023/09/01 01:25:08;;;;;;;1.67;1.50;;;;;;;16.76;80.26;98649.34;5074006;28;41836;-81
2023/09/01 01:27:35;;;;;;;2.33;1.70;;;;;;;16.75;80.36;98642.31;5074350;28;40898;-79
2023/09/01 01:30:04;;;;;;;2.33;2.13;;;;;;;16.74;80.34;98648.63;5074017;28;38837;-79
2023/09/01 01:32:32;;;;;;;1.50;1.40;;;;;;;16.60;80.73;98630.28;5091999;28;41862;-78
2023/09/01 01:35:10;;;;;;;1.63;1.30;;;;;;;16.72;80.94;98654.13;5073526;28;42060;-79
2023/09/01 01:37:43;;;;;;;2.33;1.73;;;;;;;16.70;80.70;98647.22;5087936;28;42203;-78
2023/09/01 01:40:14;;;;;;;1.73;1.60;;;;;;;16.68;80.89;98649.22;5088107;28;40070;-78
2023/09/01 01:42:46;;;;;;;2.43;1.77;;;;;;;16.65;80.91;98644.13;5074059;28;41623;-80
2023/09/01 01:45:20;;;;;;;1.37;1.23;;;;;;;16.57;82.07;98636.75;5089083;28;42972;-82
2023/09/01 01:47:49;;;;;;;2.93;1.90;;;;;;;16.55;81.83;98632.56;5074174;28;41267;-78
2023/09/01 01:50:16;;;;;;;3.57;1.60;;;;;;;16.61;81.59;98653.38;5090278;28;39147;-83
2023/09/01 01:52:44;;;;;;;2.53;1.73;;;;;;;16.62;81.75;98650.59;5090779;28;42805;-79
2023/09/01 01:55:13;;;;;;;1.77;1.43;;;;;;;16.53;81.52;98624.66;5074103;28;41888;-81
2023/09/01 01:57:42;;;;;;;2.30;1.60;;;;;;;16.64;81.61;98647.78;5087499;28;42326;-80
2023/09/01 02:00:14;;;;;;;2.27;1.70;;;;;;;16.58;81.72;98632.25;5091084;28;41121;-80
2023/09/01 02:02:42;;;;;;;2.93;1.43;;;;;;;16.60;82.28;98635.63;5089252;28;41583;-81
2023/09/01 02:05:10;;;;;;;3.00;2.10;;;;;;;16.55;82.05;98625.38;5091153;28;42684;-78
2023/09/01 02:07:38;;;;;;;2.23;1.60;;;;;;;16.54;82.31;98631.72;5073905;28;41150;-83
2023/09/01 02:10:06;;;;;;;1.83;1.50;;;;;;;16.57;81.75;98642.09;5072374;28;39028;-82
2023/09/01 02:12:36;;;;;;;2.93;1.93;;;;;;;16.55;81.89;98621.84;5090563;28;41769;-82
2023/09/01 02:15:08;;;;;;;1.83;1.60;;;;;;;16.49;82.45;98620.56;5089745;28;43684;-78
2023/09/01 02:17:36;;;;;;;1.77;1.60;;;;;;;16.53;82.26;98630.00;5073742;28;40984;-81
2023/09/01 02:20:16;;;;;;;1.83;1.63;;;;;;;16.51;82.06;98621.28;5090153;28;39127;-83
2023/09/01 02:22:44;;;;;;;3.33;2.10;;;;;;;16.51;83.19;98621.28;5088174;28;41696;-80
2023/09/01 02:25:13;;;;;;;1.90;1.70;;;;;;;16.45;83.07;98616.47;5090385;28;42445;-81
2023/09/01 02:27:43;;;;;;;3.63;1.67;;;;;;;16.39;82.92;98611.69;5073210;28;41179;-83
2023/09/01 02:30:12;;;;;;;2.90;1.47;;;;;;;16.44;82.83;98617.50;5072989;28;39251;-81
2023/09/01 02:32:40;;;;;;;2.43;1.60;;;;;;;16.34;83.02;98597.91;5089945;28;42731;-81
2023/09/01 02:35:09;;;;;;;1.67;1.33;;;;;;;16.46;82.88;98612.81;5091135;28;42909;-83
2023/09/01 02:37:37;;;;;;;2.00;1.80;;;;;;;16.42;83.56;98595.41;5073099;28;41023;-81
2023/09/01 02:40:10;;;;;;;3.40;2.17;;;;;;;16.43;83.21;98597.09;5072906;28;38968;-82
2023/09/01 02:42:39;;;;;;;2.30;1.53;;;;;;;16.35;83.53;98591.56;5073195;28;41779;-79
2023/09/01 02:45:11;;;;;;;2.97;2.10;;;;;;;16.43;83.75;98611.28;5072537;28;41763;-83
2023/09/01 02:47:40;;;;;;;2.40;1.77;;;;;;;16.44;84.12;98609.47;5089747;28;42524;-82
2023/09/01 02:50:09;;;;;;;2.57;1.90;;;;;;;16.46;83.84;98602.13;5072785;28;40331;-80
2023/09/01 02:52:37;;;;;;;2.23;2.03;;;;;;;16.45;83.30;98601.28;5089864;28;41272;-82
2023/09/01 02:55:06;;;;;;;3.50;1.70;;;;;;;16.51;83.69;98610.59;5090743;28;42690;-84
2023/09/01 02:57:35;;;;;;;2.37;1.83;;;;;;;16.50;83.61;98606.22;5090805;28;42528;-80
2023/09/01 03:00:14;;;;;;;2.93;1.80;;;;;;;16.50;83.65;98603.56;5073738;28;38938;-79
2023/09/01 03:02:44;;;;;;;3.40;1.97;;;;;;;16.53;83.72;98593.44;5087659;28;42621;-83
2023/09/01 03:05:12;;;;;;;3.80;2.50;;;;;;;16.50;84.06;98590.19;5073191;28;41979;-82
2023/09/01 03:07:39;;;;;;;2.87;2.07;;;;;;;16.46;84.32;98591.44;5089739;28;43187;-79
2023/09/01 03:10:08;;;;;;;3.67;2.40;;;;;;;16.45;84.65;98595.94;5091746;28;39680;-81
2023/09/01 03:12:37;;;;;;;3.33;1.73;;;;;;;16.41;84.82;98593.69;5075734;28;40579;-80
2023/09/01 03:15:07;;;;;;;2.03;1.80;;;;;;;16.46;85.34;98594.13;5076025;28;43103;-81
2023/09/01 03:17:34;;;;;;;2.37;1.90;;;;;;;16.45;84.71;98589.75;5092981;28;42354;-84
2023/09/01 03:20:05;;;;;;;3.13;1.67;;;;;;;16.44;84.81;98591.56;5075904;28;39874;-79
2023/09/01 03:22:33;;;;;;;2.97;1.80;;;;;;;16.46;84.91;98588.75;5093392;28;41782;-78
2023/09/01 03:25:01;;;;;;;3.97;2.63;;;;;;;16.47;85.43;98587.78;5075945;28;41578;-84
2023/09/01 03:27:31;;;;;;;2.67;1.57;;;;;;;16.47;84.68;98585.97;5076095;28;41248;-80
2023/09/01 03:30:00;;;;;;;4.47;2.10;;;;;;;16.51;85.22;98584.69;5075716;28;40371;-83
2023/09/01 03:32:33;;;;;;;3.33;2.23;;;;;;;16.43;84.66;98571.22;5075865;28;40795;-81
2023/09/01 03:35:00;;;;;;;2.43;2.10;;;;;;;16.52;84.76;98585.56;5092710;28;42384;-82
2023/09/01 03:37:29;;;;;;;2.90;2.10;;;;;;;16.54;84.74;98591.59;5080847;28;41153;-83
2023/09/01 03:39:57;;;;;;;2.87;2.07;;;;;;;16.56;84.54;98592.31;5079094;28;39825;-79
2023/09/01 03:42:26;;;;;;;2.87;1.90;;;;;;;16.57;84.72;98585.97;5093235;28;41922;-84
2023/09/01 03:44:54;;;;;;;3.43;1.90;;;;;;;16.59;84.35;98589.34;5092338;28;42595;-77
2023/09/01 03:47:21;;;;;;;4.10;2.40;;;;;;;16.60;84.34;98591.03;5075746;28;41311;-84
2023/09/01 03:49:49;;;;;;;3.47;2.47;;;;;;;16.61;84.75;98584.69;5075476;28;39372;-81
2023/09/01 03:52:17;;;;;;;2.53;2.07;;;;;;;16.64;84.20;98588.97;5075267;28;40782;-78
2023/09/01 03:54:46;;;;;;;3.07;1.87;;;;;;;16.66;84.38;98595.88;5093550;28;42959;-84
2023/09/01 03:57:15;;;;;;;3.23;1.93;;;;;;;16.68;84.28;98585.88;5076635;28;40952;-82
2023/09/01 03:59:43;;;;;;;1.70;1.60;;;;;;;16.71;83.79;98590.06;5076519;28;40080;-84
2023/09/01 04:02:11;;;;;;;1.73;1.50;;;;;;;16.74;83.75;98589.81;5075858;28;40671;-85
2023/09/01 04:04:38;;;;;;;2.27;1.70;;;;;;;16.70;84.04;98578.53;5093237;28;42936;-80
2023/09/01 04:07:06;;;;;;;3.10;2.10;;;;;;;16.73;83.84;98583.59;5075981;28;41184;-80
2023/09/01 04:09:34;;;;;;;2.60;1.83;;;;;;;16.64;83.81;98567.56;5093388;28;38873;-79
2023/09/01 04:12:03;;;;;;;2.73;1.80;;;;;;;16.73;84.46;98588.09;5075637;28;40573;-78
2023/09/01 04:14:31;;;;;;;2.50;2.10;;;;;;;16.76;84.51;98593.19;5076318;28;41845;-80
2023/09/01 04:16:58;;;;;;;1.90;1.63;;;;;;;16.74;84.42;98596.00;5093148;28;42341;-79
2023/09/01 04:19:26;;;;;;;2.73;2.27;;;;;;;16.64;84.90;98573.75;5076367;28;39222;-77
2023/09/01 04:21:53;;;;;;;4.63;2.43;;;;;;;16.70;85.61;98589.22;5074110;28;41019;-78
2023/09/01 04:24:21;;;;;;;4.53;2.40;;;;;;;16.67;85.22;98589.53;5091680;28;42403;-82
2023/09/01 04:26:49;;;;;;;3.47;2.23;;;;;;;16.67;84.94;98584.19;5074692;28;42251;-80
2023/09/01 04:29:18;;;;;;;2.57;2.23;;;;;;;16.69;85.25;98597.41;5074975;28;39818;-78
2023/09/01 04:31:49;;;;;;;3.13;2.10;;;;;;;16.69;85.27;98587.53;5075351;28;41517;-83
2023/09/01 04:34:18;;;;;;;2.40;2.03;;;;;;;16.69;84.93;98587.53;5075195;28;41746;-83
2023/09/01 04:36:46;;;;;;;1.83;1.73;;;;;;;16.70;84.87;98588.38;5105952;28;42337;-85
2023/09/01 04:39:15;;;;;;;3.20;1.83;;;;;;;16.70;85.10;98594.56;5076357;28;38827;-83
2023/09/01 04:41:44;;;;;;;3.13;2.10;;;;;;;16.71;85.86;98593.59;5074899;28;41587;-82
2023/09/01 04:44:13;;;;;;;2.83;1.93;;;;;;;16.72;85.72;98597.97;5092165;28;42502;-79
2023/09/01 04:46:43;;;;;;;3.17;2.70;;;;;;;16.75;85.46;98603.03;5074273;28;41285;-80
2023/09/01 04:49:10;;;;;;;3.60;2.73;;;;;;;16.46;85.36;98549.50;5091780;28;40137;-79
2023/09/01 04:51:40;;;;;;;5.53;2.60;;;;;;;16.71;85.54;98582.91;5074227;28;42284;-81
2023/09/01 04:54:08;;;;;;;3.27;2.30;;;;;;;16.80;85.80;98597.28;5092300;28;44346;-87
2023/09/01 04:56:35;;;;;;;2.63;2.10;;;;;;;16.80;85.21;98594.59;5109687;28;42210;-80
2023/09/01 04:59:03;;;;;;;1.93;1.77;;;;;;;16.73;85.51;98580.94;5075556;28;39933;-79
2023/09/01 05:01:31;;;;;;;3.57;2.50;;;;;;;16.71;85.48;98574.88;5091639;28;40564;-78
2023/09/01 05:04:00;;;;;;;3.60;2.40;;;;;;;16.84;85.63;98596.84;5092128;28;43474;-81
2023/09/01 05:06:28;;;;;;;2.77;2.20;;;;;;;16.84;85.62;98590.63;5075492;28;42117;-80
2023/09/01 05:08:55;;;;;;;2.80;1.90;;;;;;;16.88;85.88;98605.44;5092406;28;39612;-77
2023/09/01 05:11:23;;;;;;;3.13;2.23;;;;;;;16.53;85.25;98544.47;5091929;28;42694;-78
2023/09/01 05:13:50;;;;;;;3.03;2.20;;;;;;;16.91;85.69;98604.31;5091942;28;43885;-79
2023/09/01 05:16:18;;;;;;;2.87;2.27;;;;;;;16.91;85.66;98607.81;5074617;28;41094;-80
2023/09/01 05:18:46;;;;;;;4.30;1.90;;;;;;;16.93;85.36;98613.03;5075718;28;39866;-84
2023/09/01 05:21:15;;;;;;;2.13;1.80;;;;;;;16.84;85.39;98594.16;5074873;28;40712;-78
2023/09/01 05:23:43;;;;;;;1.60;1.50;;;;;;;16.92;85.10;98596.16;5073269;28;42091;-80
2023/09/01 05:26:11;;;;;;;2.63;2.00;;;;;;;17.06;84.85;98614.41;5073817;28;41187;-82
2023/09/01 05:28:38;;;;;;;1.63;1.47;;;;;;;17.11;85.13;98614.84;5074454;28;38912;-80
2023/09/01 05:31:06;;;;;;;2.33;2.00;;;;;;;17.14;84.93;98616.38;5090455;28;41880;-80
2023/09/01 05:33:36;;;;;;;2.30;1.87;;;;;;;16.97;85.18;98582.31;5090502;28;43741;-80
2023/09/01 05:36:05;;;;;;;2.33;2.00;;;;;;;17.22;85.54;98624.53;5090874;28;43058;-81
2023/09/01 05:38:34;;;;;;;2.70;2.07;;;;;;;17.21;85.30;98623.69;5074249;28;38975;-80
2023/09/01 05:41:03;;;;;;;1.73;1.63;;;;;;;17.16;85.15;98607.25;5073601;28;40869;-82
2023/09/01 05:43:31;;;;;;;2.07;1.93;;;;;;;17.29;84.97;98628.34;5073986;28;42068;-82
2023/09/01 05:45:59;;;;;;;1.80;1.70;;;;;;;17.30;85.04;98629.19;5073870;28;41414;-82
2023/09/01 05:48:27;;;;;;;2.10;1.67;;;;;;;17.29;85.14;98625.66;5092195;28;39941;-81
2023/09/01 05:50:55;;;;;;;2.97;1.53;;;;;;;17.31;84.92;98621.00;5107651;28;41672;-78
2023/09/01 05:53:23;;;;;;;1.97;1.60;;;;;;;17.31;85.07;98618.31;5073428;28;41688;-77
2023/09/01 05:55:52;;;;;;;1.53;1.43;;;;;;;17.32;85.50;98627.19;5081012;28;41739;-80
2023/09/01 05:58:20;;;;;;;1.47;1.37;;;;;;;17.36;85.01;98629.44;5074841;28;38587;-81
2023/09/01 06:00:48;;;;;;;2.47;1.93;;;;;;;17.28;85.07;98605.25;5057080;28;40643;-80
2023/09/01 06:03:15;;;;;;;1.87;1.77;;;;;;;17.38;85.19;98623.94;5056529;28;43004;-78
2023/09/01 06:05:43;;;;;;;2.03;1.80;;;;;;;17.35;85.23;98622.41;5090168;28;42689;-81
2023/09/01 06:08:10;;;;;;;1.47;1.37;;;;;;;17.33;85.25;98621.69;5057307;28;40250;-80
2023/09/01 06:10:38;;;;;;;2.10;1.90;;;;;;;17.42;85.50;98618.19;5074104;28;40757;-82
2023/09/01 06:13:07;;;;;;;2.13;1.93;;;;;;;17.23;85.55;98578.06;5074007;28;41517;-77
2023/09/01 06:15:35;;;;;;;3.40;2.13;;;;;;;17.41;85.67;98595.06;5073269;28;42289;-80
2023/09/01 06:18:02;;;;;;;1.90;1.80;;;;;;;17.65;86.36;98618.69;5090161;28;40122;-79
2023/09/01 06:20:30;;;;;;;2.13;1.97;;;;;;;17.75;85.84;98618.66;5056054;28;40920;-78
2023/09/01 06:22:57;;;;;;;5.03;2.53;;;;;;;17.91;85.67;98618.88;5055982;28;41483;-78
2023/09/01 06:25:25;;;;;;;2.00;1.50;;;;;;;18.03;85.61;98623.06;5072196;28;42460;-77
2023/09/01 06:27:52;;;;;;;2.33;1.80;;;;;;;18.04;85.19;98614.03;5073500;28;40050;-78
2023/09/01 06:30:23;;;;;;;1.63;1.43;;;;;;;18.16;85.03;98626.25;5071912;28;40620;-77
2023/09/01 06:32:50;;;;;;;2.20;1.63;;;;;;;18.23;84.72;98635.34;5090823;28;42527;-78
2023/09/01 06:35:18;;;;;;;1.77;1.63;;;;;;;18.26;84.62;98634.22;5072436;28;42327;-80
2023/09/01 06:37:46;;;;;;;1.53;1.40;;;;;;;18.18;84.79;98618.03;5072959;28;39951;-78
2023/09/01 06:40:13;;;;;;;1.90;1.60;;;;;;;18.30;84.95;98647.16;5055899;28;41127;-79
2023/09/01 06:42:41;;;;;;;2.60;1.73;;;;;;;18.19;84.65;98633.13;5056212;28;42117;-79
2023/09/01 06:45:11;;;;;;;2.00;1.80;;;;;;;18.21;84.78;98631.13;5059510;28;41712;-81
2023/09/01 06:47:40;;;;;;;1.93;1.50;;;;;;;18.33;84.64;98655.91;5095011;28;39938;-81
2023/09/01 06:50:09;;;;;;;1.63;1.53;;;;;;;18.06;84.06;98609.34;5076284;28;41902;-83
2023/09/01 06:52:36;;;;;;;1.63;1.53;;;;;;;18.43;83.86;98662.88;5060431;28;41977;-79
2023/09/01 06:55:04;;;;;;;1.70;1.60;;;;;;;18.28;84.10;98627.72;5061802;28;42268;-78
2023/09/01 06:57:32;;;;;;;1.90;1.50;;;;;;;18.52;83.77;98656.66;5060916;28;40498;-78
2023/09/01 07:00:00;;;;;;;1.47;1.30;;;;;;;18.62;83.63;98656.59;5060411;28;40586;-80
2023/09/01 07:02:29;;;;;;;1.63;1.27;;;;;;;18.59;83.67;98640.81;5060500;28;41605;-83
2023/09/01 07:04:58;;;;;;;1.40;1.30;;;;;;;18.67;83.58;98641.72;5076998;28;42256;-83
2023/09/01 07:07:26;;;;;;;2.10;1.57;;;;;;;18.85;83.17;98651.63;5061150;28;39311;-86
2023/09/01 07:09:54;;;;;;;1.53;1.43;;;;;;;18.74;83.49;98607.09;5060632;28;41154;-84
2023/09/01 07:12:21;;;;;;;3.37;1.70;;;;;;;18.69;83.23;98582.56;5077591;28;41609;-85
2023/09/01 07:14:49;;;;;;;1.60;1.33;;;;;;;19.11;83.11;98646.34;5060427;28;41463;-84
2023/09/01 07:17:21;;;;;;;2.13;1.33;;;;;;;18.89;82.90;98604.72;5060963;28;39068;-83
2023/09/01 07:19:48;;;;;;;1.37;1.27;;;;;;;19.17;82.64;98656.44;5060305;28;41770;-82
2023/09/01 07:22:19;;;;;;;1.67;1.57;;;;;;;19.16;82.67;98644.06;5059875;28;41714;-85
2023/09/01 07:24:47;;;;;;;1.57;1.27;;;;;;;19.26;83.12;98647.47;5058870;28;41154;-82
2023/09/01 07:27:14;;;;;;;1.53;1.43;;;;;;;19.35;82.98;98649.22;5076414;28;40339;-81
2023/09/01 07:29:46;;;;;;;1.60;1.43;;;;;;;19.50;83.03;98653.06;5058845;28;40669;-84
2023/09/01 07:32:14;;;;;;;1.60;1.50;;;;;;;19.57;82.74;98631.78;5059661;28;41966;-84
2023/09/01 07:34:42;;;;;;;1.40;1.30;;;;;;;19.63;82.80;98637.38;5059063;28;41401;-79
2023/09/01 07:37:09;;;;;;;1.73;1.63;;;;;;;19.55;82.45;98636.47;5076055;28;40090;-82
2023/09/01 07:39:39;;;;;;;2.67;1.70;;;;;;;19.63;82.29;98660.72;5075845;28;40774;-82
2023/09/01 07:42:07;;;;;;;1.97;1.77;;;;;;;19.32;82.66;98614.63;5058917;28;42011;-80
2023/09/01 07:44:35;;;;;;;2.07;1.60;;;;;;;19.62;82.76;98662.56;5075290;28;41666;-83
2023/09/01 07:47:03;;;;;;;1.50;1.27;;;;;;;19.25;83.15;98590.25;5059049;28;40307;-81
2023/09/01 07:49:31;;;;;;;2.10;1.70;;;;;;;19.57;83.06;98651.44;5058958;28;41744;-84
2023/09/01 07:51:59;;;;;;;1.50;1.40;;;;;;;19.36;83.56;98632.97;5058592;28;41740;-82
2023/09/01 07:54:26;;;;;;;1.83;1.73;;;;;;;19.55;83.65;98672.22;5058924;28;41730;-79
2023/09/01 07:56:56;;;;;;;1.87;1.63;;;;;;;19.41;83.91;98659.31;5058919;28;39232;-82
2023/09/01 07:59:23;;;;;;;1.77;1.60;;;;;;;19.47;84.18;98680.19;5076433;28;41872;-87
2023/09/01 08:01:52;;;;;;;2.07;1.87;;;;;;;19.24;84.28;98649.47;5076488;28;41852;-84
2023/09/01 08:04:21;;;;;;;2.50;1.73;;;;;;;19.29;84.32;98655.19;5075763;28;42389;-79
2023/09/01 08:06:48;;;;;;;1.37;1.27;;;;;;;19.45;84.17;98686.72;5075932;28;38987;-78
2023/09/01 08:09:19;;;;;;;1.80;1.70;;;;;;;19.39;84.62;98677.47;5073675;28;41017;-82
2023/09/01 08:11:56;;;;;;;1.63;1.53;;;;;;;19.38;84.38;98660.50;5074508;28;42321;-82
2023/09/01 08:14:25;;;;;;;2.13;1.40;;;;;;;19.52;84.44;98672.56;5075094;28;41612;-79
2023/09/01 08:16:53;;;;;;;1.63;1.53;;;;;;;19.61;84.76;98665.41;5092051;28;40030;-83
2023/09/01 08:19:20;;;;;;;1.80;1.70;;;;;;;19.72;84.60;98674.03;5075162;28;41984;-85
2023/09/01 08:21:48;;;;;;;2.00;1.50;;;;;;;19.97;84.44;98687.63;5092030;28;42977;-80
2023/09/01 08:24:16;;;;;;;1.67;1.30;;;;;;;20.10;84.15;98688.03;5074890;28;41075;-80
2023/09/01 08:26:43;;;;;;;1.40;1.30;;;;;;;20.16;84.46;98687.38;5091230;28;40392;-77
2023/09/01 08:29:13;;;;;;;0.97;0.87;;;;;;;20.21;84.83;98698.50;5091766;28;40933;-78
2023/09/01 08:31:42;;;;;;;1.00;1.00;;;;;;;20.23;84.76;98688.44;5092429;28;44396;-78
2023/09/01 08:34:10;;;;;;;0.80;0.80;;;;;;;20.27;85.12;98688.97;5092271;28;43279;-80
2023/09/01 08:36:38;;;;;;;0.87;0.80;;;;;;;20.31;85.70;98684.94;5074724;28;40028;-80
2023/09/01 08:39:07;;;;;;;0.83;0.83;;;;;;;20.44;85.59;98685.34;5074685;28;40922;-81
2023/09/01 08:41:41;;;;;;;0.73;0.73;;;;;;;20.55;84.98;98686.91;5091270;28;42708;-82
2023/09/01 08:44:11;;;;;;;0.70;0.70;;;;;;;20.65;84.72;98683.06;5074985;28;42521;-80
2023/09/01 08:46:43;;;;;;;0.90;0.90;;;;;;;20.90;84.61;98683.97;5091659;28;40270;-83
2023/09/01 08:49:23;;;;;;;0.93;0.70;;;;;;;21.18;84.13;98679.13;5091517;28;40563;-83
2023/09/01 08:51:55;;;;;;;0.67;0.67;;;;;;;21.41;82.80;98673.94;5074059;28;42894;-84
2023/09/01 08:54:24;;;;;;;1.00;0.70;;;;;;;21.41;82.38;98664.00;5074568;28;42665;-80
2023/09/01 08:56:51;;;;;;;0.60;0.60;;;;;;;21.54;81.25;98703.06;5075193;28;39103;-79
2023/09/01 08:59:19;;;;;;;0.70;0.70;;;;;;;21.51;81.78;98704.28;5092419;28;42071;-78
2023/09/01 09:01:49;;;;;;;0.60;0.60;;;;;;;21.48;81.42;98697.38;5073975;28;41707;-78
2023/09/01 09:04:17;;;;;;;0.67;0.67;;;;;;;21.52;81.69;98700.53;5073396;28;42600;-78
2023/09/01 09:06:46;;;;;;;0.80;0.77;;;;;;;21.47;80.93;98711.84;5091953;28;20705;-78
2023/09/01 09:09:15;;;;;;;3.03;1.20;;;;;;;21.40;80.49;98715.38;5074251;28;40830;-76
2023/09/01 09:11:56;;;;;;;0.80;0.80;;;;;;;21.28;80.85;98709.47;5091741;28;43041;-82
2023/09/01 09:14:24;;;;;;;1.90;0.90;;;;;;;21.30;80.84;98712.84;5075104;28;41102;-83
2023/09/01 09:16:54;;;;;;;1.20;1.00;;;;;;;21.25;80.94;98717.06;5092157;28;39910;-82
2023/09/01 09:19:23;;;;;;;1.17;1.07;;;;;;;21.08;80.87;98706.22;5091140;28;42913;-82
2023/09/01 09:22:04;;;;;;;0.80;0.80;;;;;;;20.98;81.68;98718.16;5092014;28;43631;-81
2023/09/01 09:24:36;;;;;;;1.10;1.00;;;;;;;20.93;82.18;98707.88;5073618;28;41190;-80
2023/09/01 09:27:05;;;;;;;1.03;1.00;;;;;;;20.95;82.11;98716.63;5090886;28;41294;-78
2023/09/01 09:29:39;;;;;;;1.00;0.90;;;;;;;21.03;81.95;98719.34;5090420;28;40768;-82
2023/09/01 09:32:18;;;;;;;0.80;0.80;;;;;;;21.14;81.50;98716.31;5090171;28;41621;-80
2023/09/01 09:35:08;;;;;;;1.00;0.90;;;;;;;21.23;81.30;98713.69;5090414;28;42755;-79
2023/09/01 09:37:37;;;;;;;1.20;1.10;;;;;;;21.16;81.53;98703.53;5073743;28;39525;-79
2023/09/01 09:40:15;;;;;;;1.00;0.90;;;;;;;21.36;81.18;98709.50;5089943;28;42418;-82
2023/09/01 09:42:44;;;;;;;1.00;0.90;;;;;;;21.42;80.87;98718.75;5073873;28;41786;-83
2023/09/01 09:45:28;;;;;;;1.37;1.27;;;;;;;21.50;80.20;98716.06;5090422;28;42029;-80
2023/09/01 09:47:58;;;;;;;1.00;1.00;;;;;;;21.56;79.85;98720.75;5073966;28;39504;-83
2023/09/01 09:50:27;;;;;;;1.33;0.90;;;;;;;21.58;79.35;98716.06;5089957;28;40619;-77
2023/09/01 09:52:58;;;;;;;1.57;0.90;;;;;;;21.63;79.33;98716.41;5073390;28;41549;-77
2023/09/01 09:55:27;;;;;;;1.13;1.03;;;;;;;21.80;79.34;98715.34;5090474;28;41855;-79
2023/09/01 09:58:02;;;;;;;1.20;1.10;;;;;;;21.83;78.66;98701.53;5073962;28;38671;-77
2023/09/01 10:00:31;;;;;;;1.50;1.40;;;;;;;22.07;78.23;98724.94;5089755;28;42050;-78
2023/09/01 10:03:03;;;;;;;1.40;1.30;;;;;;;22.16;78.19;98728.47;5091166;28;42718;-80
2023/09/01 10:05:33;;;;;;;1.40;1.30;;;;;;;22.08;77.87;98721.25;5090810;28;43041;-81
2023/09/01 10:08:03;;;;;;;1.63;1.53;;;;;;;22.14;77.69;98734.03;5089637;28;42521;-78
2023/09/01 10:10:35;;;;;;;1.33;1.23;;;;;;;22.20;77.63;98735.22;5089664;28;42106;-81
2023/09/01 10:13:06;;;;;;;2.20;1.50;;;;;;;22.23;77.73;98726.78;5092212;28;41814;-78
2023/09/01 10:15:35;;;;;;;1.30;1.20;;;;;;;22.14;77.16;98714.31;5092441;28;42242;-83
2023/09/01 10:18:05;;;;;;;1.30;1.20;;;;;;;22.16;77.01;98718.53;5089228;28;40821;-82
2023/09/01 10:20:35;;;;;;;1.23;1.13;;;;;;;22.17;77.26;98708.56;5088026;28;41166;-82
2023/09/01 10:23:04;;;;;;;2.67;1.17;;;;;;;22.28;77.56;98721.69;5073094;28;42812;-80
2023/09/01 10:25:34;;;;;;;1.27;1.00;;;;;;;22.27;77.72;98725.41;5092341;28;42737;-85
2023/09/01 10:28:03;;;;;;;1.30;1.20;;;;;;;22.30;77.90;98718.81;5057310;28;40403;-86
2023/09/01 10:30:32;;;;;;;2.23;1.30;;;;;;;22.27;77.77;98714.59;5073215;28;40334;-88
2023/09/01 10:33:07;;;;;;;1.70;1.60;;;;;;;22.15;78.10;98697.09;5091339;28;42736;-86
2023/09/01 10:35:41;;;;;;;1.30;1.20;;;;;;;22.28;78.15;98719.00;5088942;28;42232;-87
2023/09/01 10:38:13;;;;;;;1.47;1.33;;;;;;;22.25;78.00;98715.81;5073257;28;38891;-80
2023/09/01 10:40:44;;;;;;;1.50;1.33;;;;;;;22.23;78.03;98718.69;5073032;28;40601;-82
2023/09/01 10:43:12;;;;;;;1.40;1.30;;;;;;;22.17;77.74;98703.19;5073064;28;42021;-83
2023/09/01 10:45:40;;;;;;;1.30;1.20;;;;;;;22.23;77.76;98698.97;5089893;28;42699;-81
2023/09/01 10:48:12;;;;;;;1.07;1.00;;;;;;;22.33;77.72;98696.91;5072819;28;38832;-81
2023/09/01 10:50:44;;;;;;;1.63;1.53;;;;;;;22.46;77.17;98716.06;5088752;28;42477;-80
2023/09/01 10:53:33;;;;;;;1.40;1.30;;;;;;;22.45;76.85;98717.94;5091261;28;42823;-82
2023/09/01 10:56:12;;;;;;;1.50;1.40;;;;;;;22.35;76.55;98695.72;5090592;28;41201;-82
2023/09/01 10:58:50;;;;;;;1.53;1.30;;;;;;;22.63;76.32;98719.53;5090995;28;40075;-82
2023/09/01 11:01:32;;;;;;;2.83;1.53;;;;;;;22.63;76.15;98711.44;5090473;28;40549;-85
2023/09/01 11:04:31;;;;;;;2.20;1.60;;;;;;;22.78;75.40;98707.00;5073146;28;41923;-84
2023/09/01 11:07:08;;;;;;;1.40;1.30;;;;;;;23.03;74.79;98727.44;5065583;28;42751;-82
2023/09/01 11:09:52;;;;;;;1.70;1.60;;;;;;;23.11;74.80;98713.91;5072829;28;39864;-86
2023/09/01 11:12:29;;;;;;;1.63;1.53;;;;;;;23.18;73.55;98714.88;5072095;28;40716;-81
2023/09/01 11:14:59;;;;;;;1.70;1.57;;;;;;;23.50;73.23;98726.44;5072878;28;41691;-81
2023/09/01 11:17:38;;;;;;;1.63;1.53;;;;;;;23.88;72.51;98717.34;5072301;28;42442;-79
2023/09/01 11:20:10;;;;;;;1.47;1.37;;;;;;;24.29;70.78;98725.09;5088878;28;40292;-81
2023/09/01 11:22:39;;;;;;;1.47;1.30;;;;;;;24.55;70.36;98706.50;5089487;28;40579;-81
2023/09/01 11:25:12;;;;;;;1.30;1.23;;;;;;;24.87;69.41;98712.50;5088833;28;44760;-82
2023/09/01 11:27:43;;;;;;;1.80;1.70;;;;;;;25.14;68.43;98708.25;5088817;28;41148;-78
2023/09/01 11:30:12;;;;;;;2.03;1.30;;;;;;;25.33;67.55;98707.66;5072326;28;38968;-82
2023/09/01 11:32:39;;;;;;;1.63;1.50;;;;;;;25.50;66.72;98713.63;5074930;28;40844;-78
2023/09/01 11:35:21;;;;;;;1.80;1.30;;;;;;;25.54;66.14;98710.34;5091872;28;41746;-80
2023/09/01 11:37:49;;;;;;;1.23;1.13;;;;;;;25.68;65.82;98714.88;5092542;28;42593;-84
2023/09/01 11:40:17;;;;;;;2.17;1.20;;;;;;;25.69;65.47;98713.00;5093856;28;40135;-86
2023/09/01 11:42:46;;;;;;;1.40;1.30;;;;;;;25.60;65.37;98709.56;5092256;28;42423;-80
2023/09/01 11:45:14;;;;;;;1.37;1.27;;;;;;;25.52;65.30;98706.97;5091009;28;41945;-81